sensor_id;sensor_type;location;lat;lon;timestamp;temperature;humidity
72576;DHT22;60613;48.658;2.328;2023-02-19T07:02:36;21.20;39.30
72576;DHT22;60613;48.658;2.328;2023-02-19T07:05:03;21.00;39.40
72576;DHT22;60613;48.658;2.328;2023-02-19T07:07:28;20.80;39.40
72576;DHT22;60613;48.658;2.328;2023-02-19T07:09:54;20.60;39.50
72576;DHT22;60613;48.658;2.328;2023-02-19T07:12:20;20.40;39.70
72576;DHT22;60613;48.658;2.328;2023-02-19T07:14:45;20.20;39.50
72576;DHT22;60613;48.658;2.328;2023-02-19T07:17:11;20.10;39.50
72576;DHT22;60613;48.658;2.328;2023-02-19T07:19:37;20.00;39.50
72576;DHT22;60613;48.658;2.328;2023-02-19T07:22:02;19.90;39.20
72576;DHT22;60613;48.658;2.328;2023-02-19T07:24:28;19.80;39.10
72576;DHT22;60613;48.658;2.328;2023-02-19T07:26:53;19.80;39.10
72576;DHT22;60613;48.658;2.328;2023-02-19T07:29:19;19.80;39.20
72576;DHT22;60613;48.658;2.328;2023-02-19T07:31:44;19.80;39.50
72576;DHT22;60613;48.658;2.328;2023-02-19T07:34:10;19.70;39.90
72576;DHT22;60613;48.658;2.328;2023-02-19T07:36:35;19.70;40.30
72576;DHT22;60613;48.658;2.328;2023-02-19T07:39:01;19.70;40.50
72576;DHT22;60613;48.658;2.328;2023-02-19T07:41:27;19.70;40.50
72576;DHT22;60613;48.658;2.328;2023-02-19T07:43:53;19.70;40.70
72576;DHT22;60613;48.658;2.328;2023-02-19T07:46:19;19.70;41.10
72576;DHT22;60613;48.658;2.328;2023-02-19T07:48:45;19.90;42.50
72576;DHT22;60613;48.658;2.328;2023-02-19T07:51:13;20.00;41.10
72576;DHT22;60613;48.658;2.328;2023-02-19T07:53:41;20.20;40.80
72576;DHT22;60613;48.658;2.328;2023-02-19T07:56:07;20.40;40.40
72576;DHT22;60613;48.658;2.328;2023-02-19T07:58:33;20.40;40.60
72576;DHT22;60613;48.658;2.328;2023-02-19T08:01:09;20.50;40.50
72576;DHT22;60613;48.658;2.328;2023-02-19T08:03:36;20.60;40.60
72576;DHT22;60613;48.658;2.328;2023-02-19T08:06:02;20.60;41.10
72576;DHT22;60613;48.658;2.328;2023-02-19T08:08:28;20.60;41.00
72576;DHT22;60613;48.658;2.328;2023-02-19T08:10:54;20.70;41.10
72576;DHT22;60613;48.658;2.328;2023-02-19T08:13:38;20.80;41.00
72576;DHT22;60613;48.658;2.328;2023-02-19T08:18:31;20.80;41.30
72576;DHT22;60613;48.658;2.328;2023-02-19T08:20:57;20.80;41.00
72576;DHT22;60613;48.658;2.328;2023-02-19T08:23:24;20.80;41.20
72576;DHT22;60613;48.658;2.328;2023-02-19T08:25:51;20.90;41.00
72576;DHT22;60613;48.658;2.328;2023-02-19T08:28:18;20.90;40.80
72576;DHT22;60613;48.658;2.328;2023-02-19T08:30:45;21.00;40.70
72576;DHT22;60613;48.658;2.328;2023-02-19T08:33:13;21.10;40.70
72576;DHT22;60613;48.658;2.328;2023-02-19T08:35:39;21.10;40.50
72576;DHT22;60613;48.658;2.328;2023-02-19T08:38:05;21.10;40.40
72576;DHT22;60613;48.658;2.328;2023-02-19T08:40:31;21.20;40.40
72576;DHT22;60613;48.658;2.328;2023-02-19T08:43:07;21.20;40.40
72576;DHT22;60613;48.658;2.328;2023-02-19T08:45:33;21.20;40.40
72576;DHT22;60613;48.658;2.328;2023-02-19T08:47:59;21.30;40.30
72576;DHT22;60613;48.658;2.328;2023-02-19T08:50:25;21.40;40.40
72576;DHT22;60613;48.658;2.328;2023-02-19T08:52:50;21.40;40.70
72576;DHT22;60613;48.658;2.328;2023-02-19T08:55:16;21.30;40.70
72576;DHT22;60613;48.658;2.328;2023-02-19T08:57:42;21.40;40.60
72576;DHT22;60613;48.658;2.328;2023-02-19T09:00:08;21.40;41.30
72576;DHT22;60613;48.658;2.328;2023-02-19T09:02:34;21.40;41.40
72576;DHT22;60613;48.658;2.328;2023-02-19T09:05:00;21.40;41.40
72576;DHT22;60613;48.658;2.328;2023-02-19T09:07:26;21.40;41.60
72576;DHT22;60613;48.658;2.328;2023-02-19T09:09:52;21.40;41.40
72576;DHT22;60613;48.658;2.328;2023-02-19T09:12:18;21.40;41.30
72576;DHT22;60613;48.658;2.328;2023-02-19T09:14:44;21.40;41.50
72576;DHT22;60613;48.658;2.328;2023-02-19T09:17:10;21.40;41.70
72576;DHT22;60613;48.658;2.328;2023-02-19T09:19:36;21.40;41.70
72576;DHT22;60613;48.658;2.328;2023-02-19T09:22:02;21.40;41.70
72576;DHT22;60613;48.658;2.328;2023-02-19T09:24:28;21.40;42.90
72576;DHT22;60613;48.658;2.328;2023-02-19T09:26:54;21.40;41.80
72576;DHT22;60613;48.658;2.328;2023-02-19T09:29:22;21.40;42.00
72576;DHT22;60613;48.658;2.328;2023-02-19T09:31:48;21.40;41.60
72576;DHT22;60613;48.658;2.328;2023-02-19T09:34:14;21.40;41.80
72576;DHT22;60613;48.658;2.328;2023-02-19T09:36:39;21.40;41.90
72576;DHT22;60613;48.658;2.328;2023-02-19T09:39:07;21.40;41.90
72576;DHT22;60613;48.658;2.328;2023-02-19T09:41:38;21.50;41.80
72576;DHT22;60613;48.658;2.328;2023-02-19T09:44:12;21.50;41.70
72576;DHT22;60613;48.658;2.328;2023-02-19T09:46:44;21.50;41.60
72576;DHT22;60613;48.658;2.328;2023-02-19T09:49:17;21.50;41.60
72576;DHT22;60613;48.658;2.328;2023-02-19T09:51:57;21.50;41.60
72576;DHT22;60613;48.658;2.328;2023-02-19T09:54:27;21.50;41.40
72576;DHT22;60613;48.658;2.328;2023-02-19T09:56:54;21.50;41.40
72576;DHT22;60613;48.658;2.328;2023-02-19T09:59:39;21.60;41.60
72576;DHT22;60613;48.658;2.328;2023-02-19T10:02:17;21.50;41.60
72576;DHT22;60613;48.658;2.328;2023-02-19T10:04:45;21.60;41.70
72576;DHT22;60613;48.658;2.328;2023-02-19T10:07:38;21.60;42.10
72576;DHT22;60613;48.658;2.328;2023-02-19T10:12:47;21.60;42.10
72576;DHT22;60613;48.658;2.328;2023-02-19T10:15:19;21.60;41.90
72576;DHT22;60613;48.658;2.328;2023-02-19T10:17:46;21.60;43.10
72576;DHT22;60613;48.658;2.328;2023-02-19T10:20:14;21.60;42.10
72576;DHT22;60613;48.658;2.328;2023-02-19T10:22:42;21.60;41.90
72576;DHT22;60613;48.658;2.328;2023-02-19T10:25:14;21.60;42.00
72576;DHT22;60613;48.658;2.328;2023-02-19T10:27:41;21.60;42.40
72576;DHT22;60613;48.658;2.328;2023-02-19T10:30:23;21.60;42.40
72576;DHT22;60613;48.658;2.328;2023-02-19T10:35:24;21.60;42.70
72576;DHT22;60613;48.658;2.328;2023-02-19T10:37:51;21.70;42.60
72576;DHT22;60613;48.658;2.328;2023-02-19T10:40:19;21.70;42.50
72576;DHT22;60613;48.658;2.328;2023-02-19T10:42:51;21.70;42.70
72576;DHT22;60613;48.658;2.328;2023-02-19T10:45:38;21.70;43.00
72576;DHT22;60613;48.658;2.328;2023-02-19T10:48:06;21.60;42.40
72576;DHT22;60613;48.658;2.328;2023-02-19T10:50:42;21.70;42.80
72576;DHT22;60613;48.658;2.328;2023-02-19T10:53:23;21.70;41.70
72576;DHT22;60613;48.658;2.328;2023-02-19T10:56:07;21.80;41.70
72576;DHT22;60613;48.658;2.328;2023-02-19T10:58:33;21.80;41.90
72576;DHT22;60613;48.658;2.328;2023-02-19T11:03:47;21.70;41.80
72576;DHT22;60613;48.658;2.328;2023-02-19T11:06:14;21.70;41.80
72576;DHT22;60613;48.658;2.328;2023-02-19T11:08:50;21.70;41.60
72576;DHT22;60613;48.658;2.328;2023-02-19T11:11:22;21.60;41.80
72576;DHT22;60613;48.658;2.328;2023-02-19T11:13:48;21.60;41.70
72576;DHT22;60613;48.658;2.328;2023-02-19T11:16:14;21.60;41.60
72576;DHT22;60613;48.658;2.328;2023-02-19T11:18:40;21.60;41.60
72576;DHT22;60613;48.658;2.328;2023-02-19T11:21:24;21.70;41.90
72576;DHT22;60613;48.658;2.328;2023-02-19T11:23:50;21.70;42.00
72576;DHT22;60613;48.658;2.328;2023-02-19T11:26:22;21.70;42.10
72576;DHT22;60613;48.658;2.328;2023-02-19T11:29:18;21.70;42.20
72576;DHT22;60613;48.658;2.328;2023-02-19T11:31:44;21.70;41.80
72576;DHT22;60613;48.658;2.328;2023-02-19T11:36:40;21.70;41.90
72576;DHT22;60613;48.658;2.328;2023-02-19T11:52:18;21.80;40.90
72576;DHT22;60613;48.658;2.328;2023-02-19T11:54:54;21.80;40.90
72576;DHT22;60613;48.658;2.328;2023-02-19T11:58:02;21.80;40.90
72576;DHT22;60613;48.658;2.328;2023-02-19T12:00:47;21.80;40.80
72576;DHT22;60613;48.658;2.328;2023-02-19T12:06:22;21.90;41.10
72576;DHT22;60613;48.658;2.328;2023-02-19T12:09:11;21.90;41.00
72576;DHT22;60613;48.658;2.328;2023-02-19T12:11:53;22.00;41.30
72576;DHT22;60613;48.658;2.328;2023-02-19T12:20:16;22.00;41.30
72576;DHT22;60613;48.658;2.328;2023-02-19T12:26:30;21.90;41.20
72576;DHT22;60613;48.658;2.328;2023-02-19T12:45:35;22.10;40.70
72576;DHT22;60613;48.658;2.328;2023-02-19T12:50:36;22.00;40.60
72576;DHT22;60613;48.658;2.328;2023-02-19T12:53:38;22.00;40.50
72576;DHT22;60613;48.658;2.328;2023-02-19T12:56:07;22.00;40.40
72576;DHT22;60613;48.658;2.328;2023-02-19T12:58:41;22.10;40.40
72576;DHT22;60613;48.658;2.328;2023-02-19T13:01:10;22.00;40.40
72576;DHT22;60613;48.658;2.328;2023-02-19T13:03:40;22.00;40.30
72576;DHT22;60613;48.658;2.328;2023-02-19T13:06:26;22.00;40.30
72576;DHT22;60613;48.658;2.328;2023-02-19T13:09:12;22.10;40.30
72576;DHT22;60613;48.658;2.328;2023-02-19T13:11:53;22.10;40.30
72576;DHT22;60613;48.658;2.328;2023-02-19T13:14:33;22.10;40.20
72576;DHT22;60613;48.658;2.328;2023-02-19T13:17:05;22.00;40.20
72576;DHT22;60613;48.658;2.328;2023-02-19T13:19:36;22.10;40.20
72576;DHT22;60613;48.658;2.328;2023-02-19T13:22:14;22.10;40.20
72576;DHT22;60613;48.658;2.328;2023-02-19T13:25:01;22.10;40.20
72576;DHT22;60613;48.658;2.328;2023-02-19T13:31:01;22.10;40.10
72576;DHT22;60613;48.658;2.328;2023-02-19T13:34:06;22.10;39.90
72576;DHT22;60613;48.658;2.328;2023-02-19T13:36:34;22.10;39.90
72576;DHT22;60613;48.658;2.328;2023-02-19T13:39:04;22.20;40.30
72576;DHT22;60613;48.658;2.328;2023-02-19T13:41:38;22.20;40.20
72576;DHT22;60613;48.658;2.328;2023-02-19T13:44:07;22.30;40.10
72576;DHT22;60613;48.658;2.328;2023-02-19T13:46:45;22.30;40.10
72576;DHT22;60613;48.658;2.328;2023-02-19T13:54:46;22.20;40.10
72576;DHT22;60613;48.658;2.328;2023-02-19T13:57:25;22.30;40.40
72576;DHT22;60613;48.658;2.328;2023-02-19T13:59:56;22.30;40.40
72576;DHT22;60613;48.658;2.328;2023-02-19T14:09:53;22.20;40.50
72576;DHT22;60613;48.658;2.328;2023-02-19T14:12:21;22.30;40.50
72576;DHT22;60613;48.658;2.328;2023-02-19T14:14:55;22.30;40.50
72576;DHT22;60613;48.658;2.328;2023-02-19T14:17:41;22.30;40.40
72576;DHT22;60613;48.658;2.328;2023-02-19T14:25:26;22.40;40.10
72576;DHT22;60613;48.658;2.328;2023-02-19T14:30:56;22.30;39.80
72576;DHT22;60613;48.658;2.328;2023-02-19T14:33:25;22.30;39.80
72576;DHT22;60613;48.658;2.328;2023-02-19T14:36:01;22.30;39.80
72576;DHT22;60613;48.658;2.328;2023-02-19T14:38:35;22.30;39.70
72576;DHT22;60613;48.658;2.328;2023-02-19T14:41:02;22.30;39.70
72576;DHT22;60613;48.658;2.328;2023-02-19T14:43:29;22.20;39.60
72576;DHT22;60613;48.658;2.328;2023-02-19T14:46:02;22.30;39.60
72576;DHT22;60613;48.658;2.328;2023-02-19T14:48:35;22.30;39.40
72576;DHT22;60613;48.658;2.328;2023-02-19T14:51:15;22.30;39.40
72576;DHT22;60613;48.658;2.328;2023-02-19T14:53:47;22.30;39.40
72576;DHT22;60613;48.658;2.328;2023-02-19T14:56:20;22.30;39.30
72576;DHT22;60613;48.658;2.328;2023-02-19T14:59:24;22.30;39.30
72576;DHT22;60613;48.658;2.328;2023-02-19T15:02:14;22.30;39.30
72576;DHT22;60613;48.658;2.328;2023-02-19T15:04:40;22.30;39.20
72576;DHT22;60613;48.658;2.328;2023-02-19T15:07:08;22.30;39.30
72576;DHT22;60613;48.658;2.328;2023-02-19T15:09:54;22.30;39.20
72576;DHT22;60613;48.658;2.328;2023-02-19T15:12:30;22.30;39.20
72576;DHT22;60613;48.658;2.328;2023-02-19T15:14:59;22.40;39.20
72576;DHT22;60613;48.658;2.328;2023-02-19T15:17:29;22.40;39.30
72576;DHT22;60613;48.658;2.328;2023-02-19T15:19:56;22.40;39.30
72576;DHT22;60613;48.658;2.328;2023-02-19T15:22:24;22.40;39.30
72576;DHT22;60613;48.658;2.328;2023-02-19T15:24:50;22.40;39.20
72576;DHT22;60613;48.658;2.328;2023-02-19T15:27:23;22.40;39.20
72576;DHT22;60613;48.658;2.328;2023-02-19T15:29:50;22.40;39.20
72576;DHT22;60613;48.658;2.328;2023-02-19T15:32:19;22.40;39.20
72576;DHT22;60613;48.658;2.328;2023-02-19T15:35:17;22.40;39.30
72576;DHT22;60613;48.658;2.328;2023-02-19T15:37:43;22.40;39.20
72576;DHT22;60613;48.658;2.328;2023-02-19T15:40:13;22.40;39.30
72576;DHT22;60613;48.658;2.328;2023-02-19T15:42:39;22.40;39.40
72576;DHT22;60613;48.658;2.328;2023-02-19T15:45:24;22.40;39.50
72576;DHT22;60613;48.658;2.328;2023-02-19T15:47:54;22.30;39.60
72576;DHT22;60613;48.658;2.328;2023-02-19T15:50:25;22.30;39.60
72576;DHT22;60613;48.658;2.328;2023-02-19T15:53:16;22.30;39.80
72576;DHT22;60613;48.658;2.328;2023-02-19T15:56:00;22.30;39.60
72576;DHT22;60613;48.658;2.328;2023-02-19T15:58:45;22.30;39.70
72576;DHT22;60613;48.658;2.328;2023-02-19T16:01:23;22.30;39.70
72576;DHT22;60613;48.658;2.328;2023-02-19T16:03:50;22.30;39.90
72576;DHT22;60613;48.658;2.328;2023-02-19T16:06:17;22.20;40.10
72576;DHT22;60613;48.658;2.328;2023-02-19T16:09:03;22.20;40.10
72576;DHT22;60613;48.658;2.328;2023-02-19T16:11:45;22.30;40.00
72576;DHT22;60613;48.658;2.328;2023-02-19T16:16:43;22.40;39.90
72576;DHT22;60613;48.658;2.328;2023-02-19T16:19:10;22.30;39.70
72576;DHT22;60613;48.658;2.328;2023-02-19T16:21:36;22.30;39.70
72576;DHT22;60613;48.658;2.328;2023-02-19T16:30:05;22.30;39.70
72576;DHT22;60613;48.658;2.328;2023-02-19T16:32:32;22.30;39.80
72576;DHT22;60613;48.658;2.328;2023-02-19T16:34:57;22.30;39.80
72576;DHT22;60613;48.658;2.328;2023-02-19T16:37:54;22.30;39.70
72576;DHT22;60613;48.658;2.328;2023-02-19T16:45:14;22.40;39.70
72576;DHT22;60613;48.658;2.328;2023-02-19T16:47:41;22.40;39.80
72576;DHT22;60613;48.658;2.328;2023-02-19T16:50:17;22.40;39.70
72576;DHT22;60613;48.658;2.328;2023-02-19T16:52:58;22.40;39.60
72576;DHT22;60613;48.658;2.328;2023-02-19T16:55:24;22.40;40.80
72576;DHT22;60613;48.658;2.328;2023-02-19T16:57:49;22.40;39.70
72576;DHT22;60613;48.658;2.328;2023-02-19T17:00:24;22.40;39.60
72576;DHT22;60613;48.658;2.328;2023-02-19T17:02:52;22.40;39.60
72576;DHT22;60613;48.658;2.328;2023-02-19T17:05:19;22.40;39.50
72576;DHT22;60613;48.658;2.328;2023-02-19T17:07:46;22.40;39.60
72576;DHT22;60613;48.658;2.328;2023-02-19T17:10:20;22.40;39.60
72576;DHT22;60613;48.658;2.328;2023-02-19T17:12:47;22.40;39.80
72576;DHT22;60613;48.658;2.328;2023-02-19T17:15:13;22.40;39.50
72576;DHT22;60613;48.658;2.328;2023-02-19T17:17:39;22.40;39.70
72576;DHT22;60613;48.658;2.328;2023-02-19T17:22:39;22.40;39.70
72576;DHT22;60613;48.658;2.328;2023-02-19T17:25:05;22.40;40.00
72576;DHT22;60613;48.658;2.328;2023-02-19T17:27:31;22.40;39.50
72576;DHT22;60613;48.658;2.328;2023-02-19T17:29:57;22.50;40.80
72576;DHT22;60613;48.658;2.328;2023-02-19T17:32:22;22.50;38.90
72576;DHT22;60613;48.658;2.328;2023-02-19T17:34:48;22.50;38.90
72576;DHT22;60613;48.658;2.328;2023-02-19T17:37:14;22.60;38.90
72576;DHT22;60613;48.658;2.328;2023-02-19T17:39:40;22.60;39.10
72576;DHT22;60613;48.658;2.328;2023-02-19T17:42:06;22.60;38.80
72576;DHT22;60613;48.658;2.328;2023-02-19T17:44:31;22.60;38.90
72576;DHT22;60613;48.658;2.328;2023-02-19T17:46:57;22.50;38.90
72576;DHT22;60613;48.658;2.328;2023-02-19T17:49:23;22.50;38.80
72576;DHT22;60613;48.658;2.328;2023-02-19T17:51:48;22.40;38.70
72576;DHT22;60613;48.658;2.328;2023-02-19T17:54:14;22.50;39.10
72576;DHT22;60613;48.658;2.328;2023-02-19T17:56:40;22.40;38.80
72576;DHT22;60613;48.658;2.328;2023-02-19T17:59:08;22.40;38.80
72576;DHT22;60613;48.658;2.328;2023-02-19T18:01:33;22.40;38.80
72576;DHT22;60613;48.658;2.328;2023-02-19T18:03:59;22.40;38.90
72576;DHT22;60613;48.658;2.328;2023-02-19T18:06:24;22.40;38.70
72576;DHT22;60613;48.658;2.328;2023-02-19T18:08:51;22.40;38.80
72576;DHT22;60613;48.658;2.328;2023-02-19T18:11:18;22.40;38.50
72576;DHT22;60613;48.658;2.328;2023-02-19T18:13:44;22.40;38.70
72576;DHT22;60613;48.658;2.328;2023-02-19T18:16:10;22.40;38.70
72576;DHT22;60613;48.658;2.328;2023-02-19T18:18:36;22.40;38.80
72576;DHT22;60613;48.658;2.328;2023-02-19T18:21:03;22.40;38.80
72576;DHT22;60613;48.658;2.328;2023-02-19T18:23:28;22.40;38.80
72576;DHT22;60613;48.658;2.328;2023-02-19T18:25:54;22.40;38.80
72576;DHT22;60613;48.658;2.328;2023-02-19T18:28:19;22.40;38.60
72576;DHT22;60613;48.658;2.328;2023-02-19T18:30:45;22.40;38.60
72576;DHT22;60613;48.658;2.328;2023-02-19T18:33:11;22.40;38.50
72576;DHT22;60613;48.658;2.328;2023-02-19T18:35:38;22.40;38.60
72576;DHT22;60613;48.658;2.328;2023-02-19T18:38:04;22.40;38.60
72576;DHT22;60613;48.658;2.328;2023-02-19T18:40:29;22.40;38.60
72576;DHT22;60613;48.658;2.328;2023-02-19T18:42:55;22.40;38.60
72576;DHT22;60613;48.658;2.328;2023-02-19T18:45:21;22.40;38.60
72576;DHT22;60613;48.658;2.328;2023-02-19T18:47:47;22.40;38.60
72576;DHT22;60613;48.658;2.328;2023-02-19T18:50:14;22.30;38.60
72576;DHT22;60613;48.658;2.328;2023-02-19T18:52:40;22.40;38.70
72576;DHT22;60613;48.658;2.328;2023-02-19T18:55:09;22.30;38.60
72576;DHT22;60613;48.658;2.328;2023-02-19T18:57:34;22.40;38.60
72576;DHT22;60613;48.658;2.328;2023-02-19T19:00:00;22.40;38.60
72576;DHT22;60613;48.658;2.328;2023-02-19T19:02:25;22.40;38.70
72576;DHT22;60613;48.658;2.328;2023-02-19T19:04:52;22.50;38.60
72576;DHT22;60613;48.658;2.328;2023-02-19T19:07:19;22.50;38.60
72576;DHT22;60613;48.658;2.328;2023-02-19T19:09:45;22.50;38.40
72576;DHT22;60613;48.658;2.328;2023-02-19T19:12:12;22.50;38.40
72576;DHT22;60613;48.658;2.328;2023-02-19T19:14:37;22.50;38.30
72576;DHT22;60613;48.658;2.328;2023-02-19T19:17:03;22.50;38.30
72576;DHT22;60613;48.658;2.328;2023-02-19T19:19:29;22.50;38.30
72576;DHT22;60613;48.658;2.328;2023-02-19T19:21:55;22.50;38.30
72576;DHT22;60613;48.658;2.328;2023-02-19T19:24:22;22.50;38.40
72576;DHT22;60613;48.658;2.328;2023-02-19T19:26:49;22.50;38.30
72576;DHT22;60613;48.658;2.328;2023-02-19T19:29:16;22.50;38.30
72576;DHT22;60613;48.658;2.328;2023-02-19T19:31:43;22.50;38.40
72576;DHT22;60613;48.658;2.328;2023-02-19T19:34:09;22.50;38.30
72576;DHT22;60613;48.658;2.328;2023-02-19T19:36:34;22.50;38.20
72576;DHT22;60613;48.658;2.328;2023-02-19T19:39:00;22.50;38.30
72576;DHT22;60613;48.658;2.328;2023-02-19T19:41:26;22.40;38.30
72576;DHT22;60613;48.658;2.328;2023-02-19T19:43:51;22.50;38.40
72576;DHT22;60613;48.658;2.328;2023-02-19T19:46:17;22.50;38.40
72576;DHT22;60613;48.658;2.328;2023-02-19T19:48:46;22.50;38.30
72576;DHT22;60613;48.658;2.328;2023-02-19T19:51:12;22.50;38.30
72576;DHT22;60613;48.658;2.328;2023-02-19T19:53:37;22.50;38.30
72576;DHT22;60613;48.658;2.328;2023-02-19T19:56:03;22.60;38.40
72576;DHT22;60613;48.658;2.328;2023-02-19T19:58:29;22.50;38.30
72576;DHT22;60613;48.658;2.328;2023-02-19T20:00:55;22.60;38.30
72576;DHT22;60613;48.658;2.328;2023-02-19T20:03:20;22.60;38.30
72576;DHT22;60613;48.658;2.328;2023-02-19T20:05:47;22.60;38.10
72576;DHT22;60613;48.658;2.328;2023-02-19T20:08:16;22.60;38.00
72576;DHT22;60613;48.658;2.328;2023-02-19T20:10:41;22.60;38.10
72576;DHT22;60613;48.658;2.328;2023-02-19T20:13:07;22.50;38.00
72576;DHT22;60613;48.658;2.328;2023-02-19T20:15:33;22.50;38.10
72576;DHT22;60613;48.658;2.328;2023-02-19T20:18:00;22.50;38.00
72576;DHT22;60613;48.658;2.328;2023-02-19T20:20:25;22.50;38.00
72576;DHT22;60613;48.658;2.328;2023-02-19T20:22:51;22.40;37.90
72576;DHT22;60613;48.658;2.328;2023-02-19T20:25:19;22.50;38.00
72576;DHT22;60613;48.658;2.328;2023-02-19T20:27:50;22.40;37.90
72576;DHT22;60613;48.658;2.328;2023-02-19T20:30:16;22.40;37.90
72576;DHT22;60613;48.658;2.328;2023-02-19T20:32:42;22.40;38.00
72576;DHT22;60613;48.658;2.328;2023-02-19T20:35:08;22.40;37.90
72576;DHT22;60613;48.658;2.328;2023-02-19T20:37:37;22.40;37.90
72576;DHT22;60613;48.658;2.328;2023-02-19T20:40:03;22.50;38.00
72576;DHT22;60613;48.658;2.328;2023-02-19T20:42:30;22.50;38.00
72576;DHT22;60613;48.658;2.328;2023-02-19T20:44:56;22.50;38.00
72576;DHT22;60613;48.658;2.328;2023-02-19T20:47:22;22.50;38.00
72576;DHT22;60613;48.658;2.328;2023-02-19T20:49:48;22.50;39.10
72576;DHT22;60613;48.658;2.328;2023-02-19T20:52:17;22.50;38.00
72576;DHT22;60613;48.658;2.328;2023-02-19T20:54:45;22.50;38.00
72576;DHT22;60613;48.658;2.328;2023-02-19T20:57:12;22.50;38.00
72576;DHT22;60613;48.658;2.328;2023-02-19T20:59:37;22.50;38.00
72576;DHT22;60613;48.658;2.328;2023-02-19T21:02:07;22.50;38.00
72576;DHT22;60613;48.658;2.328;2023-02-19T21:04:33;22.50;38.00
72576;DHT22;60613;48.658;2.328;2023-02-19T21:07:01;22.50;38.00
72576;DHT22;60613;48.658;2.328;2023-02-19T21:09:27;22.50;38.00
72576;DHT22;60613;48.658;2.328;2023-02-19T21:11:52;22.50;38.00
72576;DHT22;60613;48.658;2.328;2023-02-19T21:14:19;22.40;37.90
72576;DHT22;60613;48.658;2.328;2023-02-19T21:16:45;22.50;38.00
72576;DHT22;60613;48.658;2.328;2023-02-19T21:19:11;22.50;38.00
72576;DHT22;60613;48.658;2.328;2023-02-19T21:21:37;22.50;38.00
72576;DHT22;60613;48.658;2.328;2023-02-19T21:24:05;22.50;38.00
72576;DHT22;60613;48.658;2.328;2023-02-19T21:26:38;22.50;37.90
72576;DHT22;60613;48.658;2.328;2023-02-19T21:29:05;22.40;37.90
72576;DHT22;60613;48.658;2.328;2023-02-19T21:31:41;22.40;37.90
72576;DHT22;60613;48.658;2.328;2023-02-19T21:34:09;22.40;38.00
72576;DHT22;60613;48.658;2.328;2023-02-19T21:36:36;22.40;38.00
72576;DHT22;60613;48.658;2.328;2023-02-19T21:39:04;22.40;37.90
72576;DHT22;60613;48.658;2.328;2023-02-19T21:41:30;22.30;38.00
72576;DHT22;60613;48.658;2.328;2023-02-19T21:43:56;22.30;38.00
72576;DHT22;60613;48.658;2.328;2023-02-19T21:46:22;22.40;37.90
72576;DHT22;60613;48.658;2.328;2023-02-19T21:48:49;22.30;37.80
72576;DHT22;60613;48.658;2.328;2023-02-19T21:51:16;22.30;37.80
72576;DHT22;60613;48.658;2.328;2023-02-19T21:53:42;22.30;37.90
72576;DHT22;60613;48.658;2.328;2023-02-19T21:56:08;22.20;38.20
72576;DHT22;60613;48.658;2.328;2023-02-19T21:58:34;22.20;38.30
